createdAt,value
2022-07-26T00:01:03.106Z,999.1759644
2022-07-26T00:02:02.296Z,999.2267456
2022-07-26T00:03:05.911Z,999.1920166
2022-07-26T00:04:05.880Z,999.1867065
2022-07-26T00:05:07.574Z,999.0767212
2022-07-26T00:06:10.755Z,999.1624756
2022-07-26T00:07:04.727Z,999.1196899
2022-07-26T00:09:06.514Z,999.1624756
2022-07-26T00:10:08.461Z,999.1116943
2022-07-26T00:11:07.100Z,999.1868896
2022-07-26T00:11:07.179Z,999.1868896
2022-07-26T00:12:05.869Z,999.1386108
2022-07-26T00:13:00.151Z,999.125
2022-07-26T00:14:03.412Z,999.1838989
2022-07-26T00:14:58.733Z,999.149231
2022-07-26T00:15:56.207Z,999.1546631
2022-07-26T00:16:57.020Z,999.1571655
2022-07-26T00:17:52.409Z,999.1760864
2022-07-26T00:19:54.790Z,999.2270508
2022-07-26T00:20:47.501Z,999.1948242
2022-07-26T00:21:50.209Z,999.1519775
2022-07-26T00:22:44.769Z,999.1626587
2022-07-26T00:24:49.595Z,999.1841431
2022-07-26T00:26:51.506Z,999.0982666
2022-07-26T00:27:38.281Z,999.0206299
2022-07-26T00:29:48.415Z,999.1035767
2022-07-26T00:30:45.025Z,999.0582275
2022-07-26T00:31:47.958Z,999.055481
2022-07-26T00:32:46.171Z,999.1065674
2022-07-26T00:33:48.696Z,999.0904541
2022-07-26T00:34:47.819Z,999.1305542
2022-07-26T00:35:46.190Z,999.1359253
2022-07-26T00:36:47.442Z,999.079834
2022-07-26T00:37:44.175Z,999.109436
2022-07-26T00:39:53.764Z,999.1148682
2022-07-26T00:40:55.362Z,999.0826416
2022-07-26T00:41:57.080Z,999.0906372
2022-07-26T00:42:54.226Z,999.0637207
2022-07-26T00:43:54.332Z,999.0666504
2022-07-26T00:44:54.959Z,999.0987549
2022-07-26T00:45:55.558Z,999.1363525
2022-07-26T00:46:56.215Z,999.079834
2022-07-26T00:47:52.723Z,999.0530396
2022-07-26T00:49:03.948Z,999.0184326
2022-07-26T00:49:57.776Z,999.0476685
2022-07-26T00:50:56.740Z,999.0476685
2022-07-26T00:51:56.339Z,999.0934448
2022-07-26T00:53:04.445Z,999.0773315
2022-07-26T00:53:58.817Z,999.1013184
2022-07-26T00:55:02.613Z,999.0691528
2022-07-26T00:56:00.981Z,999.0612793
2022-07-26T00:57:14.189Z,999.0530396
2022-07-26T00:59:48.895Z,999.1334229
2022-07-26T01:00:49.532Z,999.1281128
2022-07-26T01:01:49.038Z,999.1227417
2022-07-26T01:02:44.468Z,999.1470337
2022-07-26T01:04:41.301Z,999.0934448
2022-07-26T01:05:41.592Z,999.1442261
2022-07-26T01:06:40.780Z,999.1523438
2022-07-26T01:07:42.276Z,999.1228027
2022-07-26T01:08:36.596Z,999.0290527
2022-07-26T01:09:35.855Z,999.1148682
2022-07-26T01:10:34.503Z,999.1201782
2022-07-26T01:11:39.897Z,999.138855
2022-07-26T01:12:34.169Z,999.0934448
2022-07-26T01:14:32.136Z,999.1201782
2022-07-26T01:15:32.269Z,999.1255493
2022-07-26T01:16:30.508Z,999.1387329
2022-07-26T01:17:26.732Z,999.1601563
2022-07-26T01:19:28.606Z,999.1147461
2022-07-26T01:20:23.885Z,999.085144
2022-07-26T01:21:29.008Z,999.1758423
2022-07-26T01:22:23.282Z,999.0633545
2022-07-26T01:24:17.052Z,999.0687256
2022-07-26T01:25:21.260Z,999.1276855
2022-07-26T01:26:21.591Z,999.1651001
2022-07-26T01:27:17.759Z,999.0686646
2022-07-26T01:29:12.590Z,999.1196899
2022-07-26T01:30:17.302Z,999.060791
2022-07-26T01:31:18.239Z,999.0285645
2022-07-26T01:32:14.139Z,999.0310669
2022-07-26T01:34:09.182Z,999.0471802
2022-07-26T01:35:08.535Z,999.0578613
2022-07-26T01:36:08.646Z,999.0792847
2022-07-26T01:37:54.685Z,999.095459
2022-07-26T01:38:35.115Z,999.0772095
2022-07-26T01:39:34.160Z,999.0744019
2022-07-26T01:40:35.688Z,999.0987549
2022-07-26T01:41:38.663Z,999.0904541
2022-07-26T01:42:16.171Z,999.0396729
2022-07-26T01:43:14.229Z,999.0826416
2022-07-26T01:44:17.517Z,999.0687256
2022-07-26T01:45:12.915Z,999.0204468
2022-07-26T01:46:17.067Z,999.0286865
2022-07-26T01:47:15.177Z,999.1251831
2022-07-26T01:49:08.273Z,999.1168823
2022-07-26T01:50:08.114Z,999.0150757
2022-07-26T01:51:03.330Z,999.0632935
2022-07-26T01:52:02.495Z,999.0661011
2022-07-26T01:53:00.675Z,999.0661011
2022-07-26T01:54:04.840Z,999.1141968
2022-07-26T01:55:00.295Z,999.1411133
2022-07-26T01:56:05.621Z,999.0820313
2022-07-26T01:57:05.839Z,999.0792236
2022-07-26T01:58:12.624Z,999.0391235
2022-07-26T01:59:08.517Z,999.0391235
2022-07-26T02:00:05.507Z,999.105957
2022-07-26T02:01:04.439Z,999.1594238
2022-07-26T02:02:01.199Z,999.1004639
2022-07-26T02:03:02.930Z,999.0657959
2022-07-26T02:04:56.552Z,999.1782837
2022-07-26T02:05:51.974Z,999.135498
2022-07-26T02:06:50.982Z,999.1646729
2022-07-26T02:07:46.460Z,999.1300659
2022-07-26T02:09:23.645Z,999.0953979
2022-07-26T02:11:11.132Z,999.104126
2022-07-26T02:11:49.526Z,999.1256104
2022-07-26T02:12:48.510Z,999.1363525
2022-07-26T02:14:46.033Z,999.0987549
2022-07-26T02:15:41.220Z,999.138855
2022-07-26T02:16:39.553Z,999.1656494
2022-07-26T02:17:41.925Z,999.1898193
2022-07-26T02:18:42.203Z,999.1601563
2022-07-26T02:19:42.336Z,999.2133789
2022-07-26T02:20:41.308Z,999.1732788
2022-07-26T02:21:39.486Z,999.1810913
2022-07-26T02:22:54.226Z,999.2775269
2022-07-26T02:23:52.402Z,999.2614136
2022-07-26T02:24:53.880Z,999.258728
2022-07-26T02:25:46.384Z,999.2426758
2022-07-26T02:26:44.980Z,999.2426758
2022-07-26T02:27:43.472Z,999.2265625
2022-07-26T02:29:38.970Z,999.2373657
2022-07-26T02:30:30.073Z,999.258728
2022-07-26T02:31:34.136Z,999.130127
2022-07-26T02:32:25.742Z,999.1487427
2022-07-26T02:33:30.203Z,999.1380615
2022-07-26T02:34:32.204Z,999.1594238
2022-07-26T02:34:34.034Z,999.1594238
2022-07-26T02:35:31.627Z,999.194397
2022-07-26T02:36:25.883Z,999.1837769
2022-07-26T02:37:24.115Z,999.1916504
2022-07-26T02:39:43.804Z,999.170166
2022-07-26T02:40:25.186Z,999.2236938
2022-07-26T02:41:25.712Z,999.2023315
2022-07-26T02:42:26.333Z,999.1515503
2022-07-26T02:44:26.652Z,999.1754761
2022-07-26T02:45:27.573Z,999.1674805
2022-07-26T02:46:27.049Z,999.0925293
2022-07-26T02:47:27.556Z,999.2235718
2022-07-26T02:48:25.864Z,999.2235718
2022-07-26T02:49:28.712Z,999.1031494
2022-07-26T02:50:26.710Z,999.1859131
2022-07-26T02:51:27.217Z,999.1484985
2022-07-26T02:52:27.734Z,999.2584229
2022-07-26T02:54:21.488Z,999.2423706
2022-07-26T02:55:26.121Z,999.2287598
2022-07-26T02:56:20.393Z,999.2636719
2022-07-26T02:57:22.595Z,999.250061
2022-07-26T02:59:19.138Z,999.2368774
2022-07-26T03:00:17.381Z,999.2316284
2022-07-26T03:01:19.054Z,999.2636719
2022-07-26T03:02:17.205Z,999.2315063
2022-07-26T03:04:22.092Z,999.2822876
2022-07-26T03:05:22.804Z,999.3117676
2022-07-26T03:06:24.243Z,999.31427
2022-07-26T03:07:26.680Z,999.3170166
2022-07-26T03:09:25.758Z,999.3410645
2022-07-26T03:10:21.686Z,999.31427
2022-07-26T03:11:24.785Z,999.2982178
2022-07-26T03:12:19.075Z,999.3170166
2022-07-26T03:14:19.607Z,999.3599854
2022-07-26T03:15:18.882Z,999.3250122
2022-07-26T03:16:17.006Z,999.3623657
2022-07-26T03:17:14.249Z,999.3088989
2022-07-26T03:18:12.364Z,999.3867188
2022-07-26T03:20:14.940Z,999.4588013
2022-07-26T03:21:16.802Z,999.4749146
2022-07-26T03:22:17.106Z,999.4320068
2022-07-26T03:23:17.493Z,999.4831543
2022-07-26T03:24:15.478Z,999.4213867
2022-07-26T03:25:16.102Z,999.4509277
2022-07-26T03:26:40.861Z,999.4534302
2022-07-26T03:27:21.721Z,999.4348145
2022-07-26T03:28:19.657Z,999.4456177
2022-07-26T03:29:21.865Z,999.4107056
2022-07-26T03:30:25.196Z,999.3439331
2022-07-26T03:31:19.449Z,999.3973389
2022-07-26T03:32:18.642Z,999.4402466
2022-07-26T03:33:22.916Z,999.4053345
2022-07-26T03:34:21.607Z,999.4776611
2022-07-26T03:35:20.679Z,999.4829712
2022-07-26T03:36:21.686Z,999.4238892
2022-07-26T03:37:19.673Z,999.4960938
2022-07-26T03:38:23.382Z,999.477478
2022-07-26T03:39:25.461Z,999.5228271
2022-07-26T03:40:24.955Z,999.4989014
2022-07-26T03:41:27.395Z,999.5603027
2022-07-26T03:42:30.545Z,999.541748
2022-07-26T03:43:25.729Z,999.576416
2022-07-26T03:44:32.035Z,999.5977173
2022-07-26T03:45:27.861Z,999.5548706
2022-07-26T03:46:29.441Z,999.546936
2022-07-26T03:47:32.857Z,999.611084
2022-07-26T03:48:34.700Z,999.5630493
2022-07-26T03:49:35.129Z,999.5762329
2022-07-26T03:50:33.914Z,999.5708008
2022-07-26T03:51:30.164Z,999.5521851
2022-07-26T03:52:30.940Z,999.6617432
2022-07-26T03:54:35.159Z,999.6218872
2022-07-26T03:55:29.478Z,999.6349487
2022-07-26T03:56:29.711Z,999.6967163
2022-07-26T03:57:28.417Z,999.6537476
2022-07-26T03:59:27.283Z,999.6723633
2022-07-26T04:00:29.590Z,999.6723633
2022-07-26T04:01:32.521Z,999.7609253
2022-07-26T04:02:35.534Z,999.7393188
2022-07-26T04:05:03.426Z,999.7207031
2022-07-26T04:05:49.018Z,999.7075195
2022-07-26T04:05:49.039Z,999.7075195
2022-07-26T04:06:45.112Z,999.7905273
2022-07-26T04:07:40.099Z,999.7905273
2022-07-26T04:09:37.710Z,999.7932739
2022-07-26T04:10:32.635Z,999.7717285
2022-07-26T04:11:32.720Z,999.8198242
2022-07-26T04:12:30.231Z,999.8143921
2022-07-26T04:14:27.278Z,999.8810425
2022-07-26T04:15:33.562Z,999.8381348
2022-07-26T04:16:26.353Z,999.8701782
2022-07-26T04:17:27.847Z,999.8676758
2022-07-26T04:19:26.162Z,999.8919678
2022-07-26T04:20:20.928Z,999.9107666
2022-07-26T04:21:20.597Z,999.8651733
2022-07-26T04:22:16.879Z,999.9162598
2022-07-26T04:23:19.079Z,999.8864746
2022-07-26T04:25:13.055Z,999.923645
2022-07-26T04:26:13.674Z,999.9263916
2022-07-26T04:27:11.845Z,999.928894
2022-07-26T04:28:13.617Z,999.9127197
2022-07-26T04:30:15.149Z,999.9957886
2022-07-26T04:31:11.381Z,999.9422607
2022-07-26T04:32:10.426Z,999.9154663
2022-07-26T04:33:20.766Z,999.9048462
2022-07-26T04:35:17.046Z,1000.017029
2022-07-26T04:36:16.423Z,999.9927368
2022-07-26T04:37:13.610Z,1000.014038
2022-07-26T04:38:15.929Z,1000.011536
2022-07-26T04:40:12.940Z,999.9632568
2022-07-26T04:41:11.168Z,999.9550781
2022-07-26T04:42:11.415Z,999.9472046
2022-07-26T04:43:07.713Z,999.9282837
2022-07-26T04:44:12.474Z,999.8991699
2022-07-26T04:45:08.380Z,999.9472046
2022-07-26T04:46:07.166Z,999.885498
2022-07-26T04:47:08.076Z,999.9578247
2022-07-26T04:49:04.971Z,999.9234619
2022-07-26T04:49:44.556Z,999.953186
2022-07-26T04:50:43.383Z,999.8996582
2022-07-26T04:51:43.962Z,999.9370117
2022-07-26T04:52:43.432Z,999.9260864
2022-07-26T04:54:38.725Z,999.944458
2022-07-26T04:55:38.828Z,999.9709473
2022-07-26T04:56:34.462Z,999.9307861
2022-07-26T04:57:35.318Z,999.960022
2022-07-26T04:58:32.371Z,999.9681396
2022-07-26T04:59:33.207Z,1000.005554
2022-07-26T05:00:27.629Z,1000.026855
2022-07-26T05:01:29.311Z,1000.047791
2022-07-26T05:02:23.721Z,1000.026245
2022-07-26T05:03:28.375Z,1000.015564
2022-07-26T05:04:20.915Z,1000.015564
2022-07-26T05:05:22.952Z,1000.10376
2022-07-26T05:06:27.401Z,999.991272
2022-07-26T05:07:27.859Z,1000.103455
2022-07-26T05:08:22.192Z,1000.049866
2022-07-26T05:10:20.454Z,1000.044373
2022-07-26T05:11:19.913Z,1000.063293
2022-07-26T05:12:14.275Z,1000.054993
2022-07-26T05:13:13.347Z,1000.071106
2022-07-26T05:15:15.793Z,999.9905396
2022-07-26T05:16:12.216Z,1000.036194
2022-07-26T05:17:10.879Z,1000.108154
2022-07-26T05:18:07.060Z,1000.116394
2022-07-26T05:19:04.617Z,1000.119202
2022-07-26T05:20:03.256Z,1000.103027
2022-07-26T05:20:59.053Z,1000.127319
2022-07-26T05:21:54.260Z,1000.047119
2022-07-26T05:22:55.959Z,1000.092346
2022-07-26T05:24:51.529Z,1000.08728
2022-07-26T05:25:48.639Z,1000.073914
2022-07-26T05:26:45.690Z,1000.0979
2022-07-26T05:27:40.084Z,1000.060486
2022-07-26T05:28:40.459Z,1000.117004
2022-07-26T05:29:37.339Z,1000.039246
2022-07-26T05:30:36.531Z,1000.103455
2022-07-26T05:31:34.138Z,1000.114014
2022-07-26T05:32:33.640Z,1000.047119
2022-07-26T05:34:30.374Z,999.9829712
2022-07-26T05:35:31.882Z,1000.081787
2022-07-26T05:37:06.152Z,1000.071106
2022-07-26T05:37:47.057Z,1000.060486
2022-07-26T05:39:45.358Z,1000.026245
2022-07-26T05:40:40.644Z,999.9590454
2022-07-26T05:41:40.370Z,1000.007019
2022-07-26T05:42:37.473Z,1000.081787
2022-07-26T05:44:31.679Z,1000.0578
2022-07-26T05:45:31.775Z,1000.079041
2022-07-26T05:46:26.951Z,1000.041626
2022-07-26T05:47:25.611Z,1000.151123
2022-07-26T05:48:23.931Z,1000.086853
2022-07-26T05:50:20.570Z,1000.054688
2022-07-26T05:51:15.291Z,1000.100342
2022-07-26T05:52:17.517Z,1000.129456
2022-07-26T05:53:10.154Z,1000.049194
2022-07-26T05:55:05.349Z,1000.070801
2022-07-26T05:56:09.924Z,1000.081421
2022-07-26T05:57:02.458Z,1000.009399
2022-07-26T05:58:05.370Z,1000.079041
2022-07-26T05:59:58.201Z,1000.191467
2022-07-26T06:00:53.619Z,1000.084534
2022-07-26T06:01:53.439Z,1000.119202
2022-07-26T06:02:49.362Z,1000.103027
2022-07-26T06:04:47.533Z,1000.119202
2022-07-26T06:05:45.780Z,1000.226196
2022-07-26T06:06:41.974Z,1000.111267
2022-07-26T06:07:44.338Z,1000.172668
2022-07-26T06:08:36.581Z,1000.239868
2022-07-26T06:09:38.721Z,1000.298889
2022-07-26T06:10:31.226Z,1000.194214
2022-07-26T06:11:33.744Z,1000.199768
2022-07-26T06:12:27.042Z,1000.191895
2022-07-26T06:13:28.481Z,1000.333435
2022-07-26T06:15:18.852Z,1000.207947
2022-07-26T06:16:42.584Z,1000.191895
2022-07-26T06:17:25.749Z,1000.13562
2022-07-26T06:18:24.665Z,1000.280334
2022-07-26T06:20:21.236Z,1000.216553
2022-07-26T06:21:20.960Z,1000.200073
2022-07-26T06:22:17.142Z,1000.240784
2022-07-26T06:23:17.010Z,1000.216553
2022-07-26T06:24:12.937Z,1000.222046
2022-07-26T06:25:13.806Z,1000.20343
2022-07-26T06:26:09.280Z,1000.273132
2022-07-26T06:27:14.736Z,1000.238098
2022-07-26T06:28:07.595Z,1000.275757
2022-07-26T06:30:03.359Z,1000.252136
2022-07-26T06:31:03.695Z,1000.26001
2022-07-26T06:31:59.465Z,1000.383118
2022-07-26T06:33:01.281Z,1000.241455
2022-07-26T06:34:55.325Z,1000.23877
2022-07-26T06:35:56.195Z,1000.273743
2022-07-26T06:36:55.215Z,1000.354004
2022-07-26T06:37:52.591Z,1000.281616
2022-07-26T06:39:51.559Z,1000.332947
2022-07-26T06:40:51.812Z,1000.303528
2022-07-26T06:41:48.998Z,1000.268921
2022-07-26T06:42:48.973Z,1000.292786
2022-07-26T06:43:44.683Z,1000.218018
2022-07-26T06:44:42.793Z,1000.250305
2022-07-26T06:45:46.774Z,1000.328125
2022-07-26T06:46:42.266Z,1000.333618
2022-07-26T06:47:42.845Z,1000.298889
2022-07-26T06:49:39.813Z,1000.282959
2022-07-26T06:50:35.402Z,1000.334167
2022-07-26T06:51:38.513Z,1000.39032
2022-07-26T06:52:32.704Z,1000.382507
2022-07-26T06:53:33.052Z,1000.476074
2022-07-26T06:54:29.601Z,1000.372009
2022-07-26T06:55:30.062Z,1000.379944
2022-07-26T06:57:08.070Z,1000.441895
2022-07-26T06:57:50.098Z,1000.458252
2022-07-26T06:59:45.966Z,1000.437195
2022-07-26T07:00:41.322Z,1000.496094
2022-07-26T07:01:58.459Z,1000.453308
2022-07-26T07:01:58.500Z,1000.453308
2022-07-26T07:01:59.328Z,1000.453308
2022-07-26T07:02:41.436Z,1000.474854
2022-07-26T07:04:36.201Z,1000.483032
2022-07-26T07:05:31.538Z,1000.497009
2022-07-26T07:06:30.749Z,1000.494202
2022-07-26T07:07:25.561Z,1000.504944
2022-07-26T07:08:25.503Z,1000.51532
2022-07-26T07:10:20.696Z,1000.609558
2022-07-26T07:11:18.066Z,1000.520935
2022-07-26T07:12:17.470Z,1000.534668
2022-07-26T07:13:12.860Z,1000.523926
2022-07-26T07:15:08.139Z,1000.59906
2022-07-26T07:16:08.324Z,1000.569519
2022-07-26T07:17:03.773Z,1000.58313
2022-07-26T07:17:13.045Z,1000.58313
2022-07-26T07:17:17.265Z,1000.58313
2022-07-26T07:18:04.642Z,1000.609985
2022-07-26T07:20:02.417Z,1000.548523
2022-07-26T07:20:55.757Z,1000.599609
2022-07-26T07:21:58.323Z,1000.60498
2022-07-26T07:22:50.918Z,1000.575439
2022-07-26T07:23:48.985Z,1000.583618
2022-07-26T07:24:48.943Z,1000.610413
2022-07-26T07:25:44.861Z,1000.591553
2022-07-26T07:26:45.027Z,1000.642639
2022-07-26T07:27:40.434Z,1000.677368
2022-07-26T07:28:42.933Z,1000.610535
2022-07-26T07:29:35.608Z,1000.680237
2022-07-26T07:30:34.182Z,1000.685608
2022-07-26T07:31:47.846Z,1000.701721
2022-07-26T07:31:48.361Z,1000.701721
2022-07-26T07:31:48.605Z,1000.701721
2022-07-26T07:32:34.843Z,1000.712158
2022-07-26T07:34:44.571Z,1000.768738
2022-07-26T07:35:24.032Z,1000.822449
2022-07-26T07:36:24.309Z,1000.765991
2022-07-26T07:37:20.262Z,1000.779541
2022-07-26T07:38:19.371Z,1000.739136
2022-07-26T07:40:15.820Z,1000.755249
2022-07-26T07:41:11.667Z,1000.752747
2022-07-26T07:42:19.605Z,1000.749817
2022-07-26T07:44:40.799Z,1000.774353
2022-07-26T07:45:21.168Z,1000.774353
2022-07-26T07:46:21.686Z,1000.745056
2022-07-26T07:47:17.344Z,1000.745056
2022-07-26T07:48:18.175Z,1000.766541
2022-07-26T07:49:14.528Z,1000.70752
2022-07-26T07:50:15.107Z,1000.737122
2022-07-26T07:51:13.418Z,1000.841553
2022-07-26T07:52:09.079Z,1000.822998
2022-07-26T07:53:09.598Z,1000.84967
2022-07-26T07:54:06.084Z,1000.833618
2022-07-26T07:55:36.786Z,1000.777039
2022-07-26T07:55:36.947Z,1000.777039
2022-07-26T07:56:04.691Z,1000.828125
2022-07-26T07:57:00.126Z,1000.927185
2022-07-26T07:58:01.310Z,1000.916382
2022-07-26T07:58:56.609Z,1000.884216
2022-07-26T07:59:56.458Z,1000.884216
2022-07-26T08:00:51.893Z,1000.892517
2022-07-26T08:01:52.334Z,1000.94873
2022-07-26T08:02:47.862Z,1000.887085
2022-07-26T08:04:44.098Z,1000.937805
2022-07-26T08:05:44.804Z,1000.878723
2022-07-26T08:06:41.444Z,1000.884033
2022-07-26T08:07:43.414Z,1000.91626
2022-07-26T08:08:37.739Z,1000.889404
2022-07-26T08:09:36.615Z,1000.859985
2022-07-26T08:09:42.872Z,1000.859985
2022-07-26T08:10:35.213Z,1000.835632
2022-07-26T08:10:41.794Z,1000.835632
2022-07-26T08:10:51.729Z,1000.835632
2022-07-26T08:11:35.380Z,1000.892029
2022-07-26T08:12:31.537Z,1000.921143
2022-07-26T08:14:58.457Z,1000.862183
2022-07-26T08:15:24.658Z,1000.915466
2022-07-26T08:16:23.041Z,1000.88562
2022-07-26T08:17:23.677Z,1000.850342
2022-07-26T08:17:52.222Z,1000.817993
2022-07-26T08:17:54.567Z,1000.817993
2022-07-26T08:19:47.122Z,1000.828491
2022-07-26T08:20:42.386Z,1000.836731
2022-07-26T08:21:45.421Z,1000.817749
2022-07-26T08:22:38.667Z,1000.842041
2022-07-26T08:23:38.871Z,1000.855408
2022-07-26T08:24:34.103Z,1000.868896
2022-07-26T08:25:33.985Z,1000.855408
2022-07-26T08:26:30.093Z,1000.707825
2022-07-26T08:27:28.848Z,1000.791077
2022-07-26T08:28:46.300Z,1000.799561
2022-07-26T08:28:58.519Z,1000.799561
2022-07-26T08:28:59.922Z,1000.799561
2022-07-26T08:30:24.957Z,1000.82373
2022-07-26T08:31:17.784Z,1000.791565
2022-07-26T08:32:18.602Z,1000.77002
2022-07-26T08:33:14.156Z,1000.847961
2022-07-26T08:35:17.037Z,1000.823425
2022-07-26T08:35:17.358Z,1000.823425
2022-07-26T08:36:11.528Z,1000.810059
2022-07-26T08:37:17.051Z,1000.850159
2022-07-26T08:37:17.446Z,1000.850159
2022-07-26T08:37:18.154Z,1000.850159
2022-07-26T08:38:08.218Z,1000.782959
2022-07-26T08:40:03.005Z,1000.87439
2022-07-26T08:40:58.184Z,1000.885132
2022-07-26T08:42:00.035Z,1000.80719
2022-07-26T08:42:52.956Z,1000.863831
2022-07-26T08:43:53.770Z,1000.923096
2022-07-26T08:44:47.523Z,1000.842529
2022-07-26T08:45:54.611Z,1000.823425
2022-07-26T08:46:42.508Z,1000.842529
2022-07-26T08:48:00.722Z,1000.810303
2022-07-26T08:48:14.951Z,1000.810303
2022-07-26T08:48:16.070Z,1000.810303
2022-07-26T08:48:40.046Z,1000.831848
2022-07-26T08:49:35.331Z,1000.861084
2022-07-26T08:50:34.576Z,1000.871948
2022-07-26T08:51:29.717Z,1000.88562
2022-07-26T08:52:31.296Z,1000.866882
2022-07-26T08:53:26.705Z,1000.974548
2022-07-26T08:54:25.309Z,1000.910156
2022-07-26T08:55:29.647Z,1000.899597
2022-07-26T08:55:50.311Z,1000.899597
2022-07-26T08:56:24.090Z,1000.923889
2022-07-26T08:57:15.987Z,1000.851196
2022-07-26T08:58:16.381Z,1000.972351
2022-07-26T08:59:17.172Z,1000.996399
2022-07-26T08:59:20.824Z,1000.996399
2022-07-26T08:59:22.615Z,1000.996399
2022-07-26T09:00:11.860Z,1001.031494
2022-07-26T09:01:06.419Z,1000.964233
2022-07-26T09:02:05.759Z,1001.007019
2022-07-26T09:03:01.024Z,1001.023254
2022-07-26T09:04:56.945Z,1001.053284
2022-07-26T09:05:58.971Z,1001.104248
2022-07-26T09:06:51.645Z,1001.082764
2022-07-26T09:07:52.874Z,1001.042664
2022-07-26T09:09:44.112Z,1001.037354
2022-07-26T09:11:36.044Z,1001.015808
2022-07-26T09:12:01.698Z,1001.085449
2022-07-26T09:13:00.715Z,1001.055725
2022-07-26T09:14:42.440Z,1001.09314
2022-07-26T09:15:22.396Z,1001.020874
2022-07-26T09:16:19.895Z,1001.034058
2022-07-26T09:17:19.919Z,1001.08783
2022-07-26T09:18:15.078Z,1001.044861
2022-07-26T09:19:15.158Z,1000.956238
2022-07-26T09:20:12.063Z,1001.079834
2022-07-26T09:21:09.478Z,1001.047668
2022-07-26T09:22:09.900Z,1001.125488
2022-07-26T09:22:10.485Z,1001.125488
2022-07-26T09:23:04.187Z,1001.168579
2022-07-26T09:24:59.621Z,1001.133911
2022-07-26T09:25:54.941Z,1001.211731
2022-07-26T09:26:53.957Z,1001.246826
2022-07-26T09:27:50.130Z,1001.206421
2022-07-26T09:29:47.585Z,1001.24408
2022-07-26T09:30:45.607Z,1001.367493
2022-07-26T09:31:40.780Z,1001.230774
2022-07-26T09:32:39.107Z,1001.362183
2022-07-26T09:33:33.665Z,1001.287048
2022-07-26T09:34:33.387Z,1001.270935
2022-07-26T09:35:50.521Z,1001.292419
2022-07-26T09:35:51.224Z,1001.292419
2022-07-26T09:36:25.806Z,1001.292419
2022-07-26T09:37:26.012Z,1001.351379
2022-07-26T09:38:21.362Z,1001.308533
2022-07-26T09:40:16.997Z,1001.316711
2022-07-26T09:41:19.769Z,1001.201111
2022-07-26T09:42:28.478Z,1001.211853
2022-07-26T09:42:28.635Z,1001.211853
2022-07-26T09:42:28.872Z,1001.211853
2022-07-26T09:43:13.746Z,1001.184998
2022-07-26T09:44:10.279Z,1001.179443
2022-07-26T09:45:09.758Z,1001.214478
2022-07-26T09:46:05.405Z,1001.216858
2022-07-26T09:47:07.910Z,1001.211548
2022-07-26T09:48:01.140Z,1001.208923
2022-07-26T09:49:59.856Z,1001.224915
2022-07-26T09:50:55.316Z,1001.221863
2022-07-26T09:51:58.442Z,1001.28656
2022-07-26T09:52:51.335Z,1001.165771
2022-07-26T09:54:47.286Z,1001.192505
2022-07-26T09:55:50.349Z,1001.168152
2022-07-26T09:56:43.639Z,1001.141113
2022-07-26T09:57:46.557Z,1001.151611
2022-07-26T09:58:40.713Z,1001.116882
2022-07-26T09:59:40.570Z,1001.140869
2022-07-26T10:00:36.347Z,1001.124634
2022-07-26T10:01:39.999Z,1001.11908
2022-07-26T10:03:45.401Z,1001.118896
2022-07-26T10:04:44.460Z,1001.158752
2022-07-26T10:05:44.172Z,1001.223145
2022-07-26T10:06:40.005Z,1001.190613
2022-07-26T10:07:41.118Z,1001.206726
2022-07-26T10:08:36.745Z,1001.136902
2022-07-26T10:09:37.607Z,1001.169067
2022-07-26T10:10:33.268Z,1001.257629
2022-07-26T10:11:33.960Z,1001.255005
2022-07-26T10:12:30.663Z,1001.262878
2022-07-26T10:13:30.571Z,1001.171387
2022-07-26T10:14:31.190Z,1001.217346
2022-07-26T10:15:27.066Z,1001.227783
2022-07-26T10:16:22.506Z,1001.19281
2022-07-26T10:17:29.073Z,1001.2547
2022-07-26T10:17:31.074Z,1001.2547
2022-07-26T10:18:19.811Z,1001.297668
2022-07-26T10:20:17.613Z,1001.313721
2022-07-26T10:21:15.578Z,1001.297668
2022-07-26T10:22:10.851Z,1001.281616
2022-07-26T10:23:08.349Z,1001.238586
2022-07-26T10:24:11.127Z,1001.284546
2022-07-26T10:25:03.862Z,1001.332947
2022-07-26T10:26:03.534Z,1001.266113
2022-07-26T10:26:59.121Z,1001.314514
2022-07-26T10:27:58.992Z,1001.284973
2022-07-26T10:29:57.856Z,1001.341614
2022-07-26T10:30:50.546Z,1001.290466
2022-07-26T10:31:49.605Z,1001.360291
2022-07-26T10:32:50.684Z,1001.263611
2022-07-26T10:33:43.341Z,1001.304199
2022-07-26T10:35:38.674Z,1001.347168
2022-07-26T10:36:38.699Z,1001.473389
2022-07-26T10:37:34.177Z,1001.607727
2022-07-26T10:38:34.229Z,1001.669861
2022-07-26T10:40:30.035Z,1001.705017
2022-07-26T10:41:25.357Z,1001.605774
2022-07-26T10:42:23.129Z,1001.667664
2022-07-26T10:43:40.097Z,1001.69458
2022-07-26T10:43:44.487Z,1001.69458
2022-07-26T10:44:17.013Z,1001.646301
2022-07-26T10:45:16.731Z,1001.68927
2022-07-26T10:46:12.140Z,1001.617004
2022-07-26T10:47:14.511Z,1001.633179
2022-07-26T10:48:08.004Z,1001.574158
2022-07-26T10:49:07.254Z,1001.603577
2022-07-26T10:50:02.064Z,1001.63562
2022-07-26T10:51:06.348Z,1001.600769
2022-07-26T10:52:02.356Z,1001.694702
2022-07-26T10:53:39.929Z,1001.69751
2022-07-26T10:54:24.350Z,1001.721802
2022-07-26T10:55:19.375Z,1001.716431
2022-07-26T10:56:14.765Z,1001.791565
2022-07-26T10:57:14.181Z,1001.826416
2022-07-26T10:58:08.760Z,1001.831848
2022-07-26T10:59:09.752Z,1001.893494
2022-07-26T11:00:05.479Z,1001.872009
2022-07-26T11:01:07.056Z,1001.912476
2022-07-26T11:02:02.385Z,1001.898987
2022-07-26T11:03:01.090Z,1001.896423
2022-07-26T11:04:57.782Z,1001.944763
2022-07-26T11:05:50.972Z,1001.955566
2022-07-26T11:06:50.008Z,1001.990295
2022-07-26T11:07:45.394Z,1002.022522
2022-07-26T11:08:48.172Z,1002.060059
2022-07-26T11:10:40.114Z,1001.987732
2022-07-26T11:11:34.806Z,1002.017212
2022-07-26T11:12:34.161Z,1002.006409
2022-07-26T11:13:29.403Z,1002.079041
2022-07-26T11:15:07.284Z,1001.990295
2022-07-26T11:15:47.029Z,1001.984924
2022-07-26T11:16:45.200Z,1002.02533
2022-07-26T11:17:44.689Z,1002.052185
2022-07-26T11:18:39.964Z,1002.027832
2022-07-26T11:19:40.483Z,1002.027832
2022-07-26T11:20:36.678Z,1002.02002
2022-07-26T11:21:36.372Z,1002.046814
2022-07-26T11:22:34.340Z,1002.046814
2022-07-26T11:23:33.913Z,1002.054688
2022-07-26T11:25:33.194Z,1002.111267
2022-07-26T11:26:26.593Z,1002.124512
2022-07-26T11:27:26.641Z,1002.16748
2022-07-26T11:28:22.798Z,1002.194397
2022-07-26T11:30:24.862Z,1002.135254
2022-07-26T11:31:20.183Z,1002.16748